This is the latest recevied weather packets stored in our database for station/object KR4ELZ. If no packets are shown the sender has not sent any weather packets the latest 10 day(s).
| Time | Temp. | Humidity | Pressure | Rain* | Wind** | Luminosity | Snow |
|---|---|---|---|---|---|---|---|
| 1777303316 | 26.11° C | 71% | 1013.4 hPa | 0 mm | - | 283 W/m² | - |
| 1777303013 | 25.56° C | 72% | 1013.5 hPa | 0 mm | - | 377 W/m² | - |
| 1777302710 | 26.11° C | 72% | 1013.3 hPa | 0 mm | - | 261 W/m² | - |
| 1777302408 | 26.11° C | 71% | 1013.3 hPa | 0 mm | - | 416 W/m² | - |
| 1777302106 | 25.56° C | 71% | 1013.8 hPa | 0 mm | - | 406 W/m² | - |
| 1777301804 | 25.56° C | 72% | 1013.5 hPa | 0 mm | - | 414 W/m² | - |
| 1777301501 | 26.11° C | 70% | 1013.4 hPa | 0 mm | - | 418 W/m² | - |
| 1777301197 | 25.56° C | 71% | 1013.6 hPa | 0 mm | - | 384 W/m² | - |
| 1777300894 | 25.56° C | 72% | 1013.4 hPa | 0 mm | - | 226 W/m² | - |
| 1777300592 | 25° C | 75% | 1013.3 hPa | 0 mm | - | 263 W/m² | - |
| 1777300289 | 25° C | 73% | 1013.4 hPa | 0 mm | - | 299 W/m² | - |
| 1777299986 | 25° C | 73% | 1013.3 hPa | 0 mm | - | 318 W/m² | - |
| 1777299682 | 24.44° C | 73% | 1013.5 hPa | 0 mm | - | 308 W/m² | - |
| 1777299381 | 24.44° C | 74% | 1013.4 hPa | 0 mm | - | 166 W/m² | - |
| 1777299078 | 24.44° C | 74% | 1013.5 hPa | 0 mm | - | 300 W/m² | - |
| 1777298775 | 23.89° C | 75% | 1013.7 hPa | 0 mm | - | 278 W/m² | - |
| 1777298471 | 23.33° C | 77% | 1013.8 hPa | 0 mm | - | 237 W/m² | - |
| 1777298168 | 22.78° C | 78% | 1013.6 hPa | 0 mm | - | 146 W/m² | - |
| 1777297863 | 22.22° C | 80% | 1013.6 hPa | 0 mm | - | 252 W/m² | - |
| 1777297561 | 22.22° C | 80% | 1013.8 hPa | 0 mm | - | 94 W/m² | - |
| 1777297257 | 21.67° C | 81% | 1013.8 hPa | 0 mm | - | 78 W/m² | - |
| 1777296954 | 21.67° C | 81% | 1013.8 hPa | 0 mm | - | 81 W/m² | - |
| 1777296652 | 21.67° C | 81% | 1014 hPa | 0 mm | - | 80 W/m² | - |
| 1777296327 | 21.11° C | 82% | 1013.9 hPa | 0 mm | - | 77 W/m² | - |
| 1777296022 | 21.11° C | 82% | 1014 hPa | 0 mm | - | 56 W/m² | - |
* Rain latest hour (hover to see other rain measurements)
** Current wind speed in m/s (hover to see current wind gust speed)